sensor_id;sensor_type;location;lat;lon;timestamp;P1;durP1;ratioP1;P2;durP2;ratioP2
35977;SDS011;22056;0.000;0.000;2023-04-15T00:01:36;2.13;;;0.60;;
35977;SDS011;22056;0.000;0.000;2023-04-15T00:04:02;0.88;;;0.55;;
35977;SDS011;22056;0.000;0.000;2023-04-15T00:06:29;1.88;;;0.60;;
35977;SDS011;22056;0.000;0.000;2023-04-15T00:08:55;1.23;;;0.57;;
35977;SDS011;22056;0.000;0.000;2023-04-15T00:11:21;3.30;;;0.60;;
35977;SDS011;22056;0.000;0.000;2023-04-15T00:13:48;3.45;;;0.65;;
35977;SDS011;22056;0.000;0.000;2023-04-15T00:16:14;1.75;;;0.60;;
35977;SDS011;22056;0.000;0.000;2023-04-15T00:18:40;1.10;;;0.50;;
35977;SDS011;22056;0.000;0.000;2023-04-15T00:21:07;0.77;;;0.47;;
35977;SDS011;22056;0.000;0.000;2023-04-15T00:23:33;3.08;;;0.68;;
35977;SDS011;22056;0.000;0.000;2023-04-15T00:26:00;1.48;;;0.65;;
35977;SDS011;22056;0.000;0.000;2023-04-15T00:28:26;1.30;;;0.50;;
35977;SDS011;22056;0.000;0.000;2023-04-15T00:30:53;1.38;;;0.50;;
35977;SDS011;22056;0.000;0.000;2023-04-15T00:33:19;3.10;;;0.50;;
35977;SDS011;22056;0.000;0.000;2023-04-15T00:35:45;1.85;;;0.70;;
35977;SDS011;22056;0.000;0.000;2023-04-15T00:38:12;1.50;;;0.55;;
35977;SDS011;22056;0.000;0.000;2023-04-15T00:40:38;1.73;;;0.52;;
35977;SDS011;22056;0.000;0.000;2023-04-15T00:43:05;0.93;;;0.60;;
35977;SDS011;22056;0.000;0.000;2023-04-15T00:45:31;1.10;;;0.47;;
35977;SDS011;22056;0.000;0.000;2023-04-15T00:47:57;0.73;;;0.45;;
35977;SDS011;22056;0.000;0.000;2023-04-15T00:50:24;1.50;;;0.70;;
35977;SDS011;22056;0.000;0.000;2023-04-15T00:52:50;1.00;;;0.50;;
35977;SDS011;22056;0.000;0.000;2023-04-15T00:55:16;3.90;;;0.50;;
35977;SDS011;22056;0.000;0.000;2023-04-15T00:57:43;2.05;;;0.60;;
35977;SDS011;22056;0.000;0.000;2023-04-15T01:00:09;1.15;;;0.40;;
35977;SDS011;22056;0.000;0.000;2023-04-15T01:02:36;1.60;;;0.52;;
35977;SDS011;22056;0.000;0.000;2023-04-15T01:05:03;2.50;;;0.57;;
35977;SDS011;22056;0.000;0.000;2023-04-15T01:07:30;2.05;;;0.60;;
35977;SDS011;22056;0.000;0.000;2023-04-15T01:09:56;1.17;;;0.57;;
35977;SDS011;22056;0.000;0.000;2023-04-15T01:12:22;1.58;;;0.40;;
35977;SDS011;22056;0.000;0.000;2023-04-15T01:14:49;3.00;;;0.55;;
35977;SDS011;22056;0.000;0.000;2023-04-15T01:17:16;1.63;;;0.60;;
35977;SDS011;22056;0.000;0.000;2023-04-15T01:19:43;1.38;;;0.50;;
35977;SDS011;22056;0.000;0.000;2023-04-15T01:22:09;2.03;;;0.73;;
35977;SDS011;22056;0.000;0.000;2023-04-15T01:24:35;1.52;;;0.30;;
35977;SDS011;22056;0.000;0.000;2023-04-15T01:27:01;1.27;;;0.68;;
35977;SDS011;22056;0.000;0.000;2023-04-15T01:29:29;1.60;;;0.50;;
35977;SDS011;22056;0.000;0.000;2023-04-15T01:31:55;1.80;;;0.40;;
35977;SDS011;22056;0.000;0.000;2023-04-15T01:34:21;1.88;;;0.40;;
35977;SDS011;22056;0.000;0.000;2023-04-15T01:36:48;0.55;;;0.40;;
35977;SDS011;22056;0.000;0.000;2023-04-15T01:39:14;1.48;;;0.40;;
35977;SDS011;22056;0.000;0.000;2023-04-15T01:41:40;1.80;;;0.40;;
35977;SDS011;22056;0.000;0.000;2023-04-15T01:44:06;0.50;;;0.40;;
35977;SDS011;22056;0.000;0.000;2023-04-15T01:46:33;1.50;;;0.40;;
35977;SDS011;22056;0.000;0.000;2023-04-15T01:48:59;1.48;;;0.50;;
35977;SDS011;22056;0.000;0.000;2023-04-15T01:51:25;0.80;;;0.45;;
35977;SDS011;22056;0.000;0.000;2023-04-15T01:53:52;0.85;;;0.50;;
35977;SDS011;22056;0.000;0.000;2023-04-15T01:56:21;0.63;;;0.40;;
35977;SDS011;22056;0.000;0.000;2023-04-15T01:58:48;0.63;;;0.30;;
35977;SDS011;22056;0.000;0.000;2023-04-15T02:01:15;0.65;;;0.30;;
35977;SDS011;22056;0.000;0.000;2023-04-15T02:03:43;2.65;;;0.40;;
35977;SDS011;22056;0.000;0.000;2023-04-15T02:06:09;0.63;;;0.40;;
35977;SDS011;22056;0.000;0.000;2023-04-15T02:08:36;0.82;;;0.40;;
35977;SDS011;22056;0.000;0.000;2023-04-15T02:11:02;0.82;;;0.38;;
35977;SDS011;22056;0.000;0.000;2023-04-15T02:13:28;1.58;;;0.40;;
35977;SDS011;22056;0.000;0.000;2023-04-15T02:15:55;1.38;;;0.47;;
35977;SDS011;22056;0.000;0.000;2023-04-15T02:18:21;0.98;;;0.50;;
35977;SDS011;22056;0.000;0.000;2023-04-15T02:20:49;1.10;;;0.47;;
35977;SDS011;22056;0.000;0.000;2023-04-15T02:23:16;0.50;;;0.30;;
35977;SDS011;22056;0.000;0.000;2023-04-15T02:25:42;0.50;;;0.40;;
35977;SDS011;22056;0.000;0.000;2023-04-15T02:28:08;1.42;;;0.30;;
35977;SDS011;22056;0.000;0.000;2023-04-15T02:30:34;0.45;;;0.30;;
35977;SDS011;22056;0.000;0.000;2023-04-15T02:33:00;1.70;;;0.40;;
35977;SDS011;22056;0.000;0.000;2023-04-15T02:35:27;1.05;;;0.40;;
35977;SDS011;22056;0.000;0.000;2023-04-15T02:37:53;0.43;;;0.40;;
35977;SDS011;22056;0.000;0.000;2023-04-15T02:40:19;0.90;;;0.40;;
35977;SDS011;22056;0.000;0.000;2023-04-15T02:42:45;0.70;;;0.30;;
35977;SDS011;22056;0.000;0.000;2023-04-15T02:45:11;0.52;;;0.40;;
35977;SDS011;22056;0.000;0.000;2023-04-15T02:47:37;0.95;;;0.40;;
35977;SDS011;22056;0.000;0.000;2023-04-15T02:50:08;0.82;;;0.43;;
35977;SDS011;22056;0.000;0.000;2023-04-15T02:52:36;0.60;;;0.30;;
35977;SDS011;22056;0.000;0.000;2023-04-15T02:55:02;1.05;;;0.30;;
35977;SDS011;22056;0.000;0.000;2023-04-15T02:57:29;0.55;;;0.40;;
35977;SDS011;22056;0.000;0.000;2023-04-15T02:59:55;0.88;;;0.30;;
35977;SDS011;22056;0.000;0.000;2023-04-15T03:02:22;0.30;;;0.30;;
35977;SDS011;22056;0.000;0.000;2023-04-15T03:04:48;0.30;;;0.30;;
35977;SDS011;22056;0.000;0.000;2023-04-15T03:07:14;0.40;;;0.40;;
35977;SDS011;22056;0.000;0.000;2023-04-15T03:09:41;1.63;;;0.40;;
35977;SDS011;22056;0.000;0.000;2023-04-15T03:12:07;0.80;;;0.38;;
35977;SDS011;22056;0.000;0.000;2023-04-15T03:14:33;0.60;;;0.30;;
35977;SDS011;22056;0.000;0.000;2023-04-15T03:16:59;0.45;;;0.40;;
35977;SDS011;22056;0.000;0.000;2023-04-15T03:19:25;0.80;;;0.30;;
35977;SDS011;22056;0.000;0.000;2023-04-15T03:21:51;1.48;;;0.35;;
35977;SDS011;22056;0.000;0.000;2023-04-15T03:24:18;1.27;;;0.30;;
35977;SDS011;22056;0.000;0.000;2023-04-15T03:26:45;0.30;;;0.20;;
35977;SDS011;22056;0.000;0.000;2023-04-15T03:29:11;0.50;;;0.30;;
35977;SDS011;22056;0.000;0.000;2023-04-15T03:31:37;0.50;;;0.43;;
35977;SDS011;22056;0.000;0.000;2023-04-15T03:34:03;0.50;;;0.30;;
35977;SDS011;22056;0.000;0.000;2023-04-15T03:36:29;0.68;;;0.40;;
35977;SDS011;22056;0.000;0.000;2023-04-15T03:38:57;0.50;;;0.40;;
35977;SDS011;22056;0.000;0.000;2023-04-15T03:41:23;0.60;;;0.30;;
35977;SDS011;22056;0.000;0.000;2023-04-15T03:43:50;0.50;;;0.30;;
35977;SDS011;22056;0.000;0.000;2023-04-15T03:46:17;0.20;;;0.20;;
35977;SDS011;22056;0.000;0.000;2023-04-15T03:48:43;0.40;;;0.30;;
35977;SDS011;22056;0.000;0.000;2023-04-15T03:51:09;0.35;;;0.30;;
35977;SDS011;22056;0.000;0.000;2023-04-15T03:53:35;0.80;;;0.30;;
35977;SDS011;22056;0.000;0.000;2023-04-15T03:56:01;0.77;;;0.40;;
35977;SDS011;22056;0.000;0.000;2023-04-15T03:58:27;1.38;;;0.40;;
35977;SDS011;22056;0.000;0.000;2023-04-15T04:00:54;0.43;;;0.40;;
35977;SDS011;22056;0.000;0.000;2023-04-15T04:03:20;0.75;;;0.30;;
35977;SDS011;22056;0.000;0.000;2023-04-15T04:05:46;0.30;;;0.22;;
35977;SDS011;22056;0.000;0.000;2023-04-15T04:08:12;1.40;;;0.30;;
35977;SDS011;22056;0.000;0.000;2023-04-15T04:10:40;0.35;;;0.30;;
35977;SDS011;22056;0.000;0.000;2023-04-15T04:13:06;0.45;;;0.35;;
35977;SDS011;22056;0.000;0.000;2023-04-15T04:15:32;0.25;;;0.25;;
35977;SDS011;22056;0.000;0.000;2023-04-15T04:17:58;0.50;;;0.40;;
35977;SDS011;22056;0.000;0.000;2023-04-15T04:20:24;0.98;;;0.40;;
35977;SDS011;22056;0.000;0.000;2023-04-15T04:22:50;0.60;;;0.30;;
35977;SDS011;22056;0.000;0.000;2023-04-15T04:25:17;0.50;;;0.30;;
35977;SDS011;22056;0.000;0.000;2023-04-15T04:27:43;0.70;;;0.32;;
35977;SDS011;22056;0.000;0.000;2023-04-15T04:30:10;0.40;;;0.40;;
35977;SDS011;22056;0.000;0.000;2023-04-15T04:32:36;0.20;;;0.17;;
35977;SDS011;22056;0.000;0.000;2023-04-15T04:35:03;0.50;;;0.30;;
35977;SDS011;22056;0.000;0.000;2023-04-15T04:37:29;0.30;;;0.30;;
35977;SDS011;22056;0.000;0.000;2023-04-15T04:39:55;0.50;;;0.30;;
35977;SDS011;22056;0.000;0.000;2023-04-15T04:42:21;1.60;;;0.40;;
35977;SDS011;22056;0.000;0.000;2023-04-15T04:44:47;0.20;;;0.20;;
35977;SDS011;22056;0.000;0.000;2023-04-15T04:47:13;0.25;;;0.22;;
35977;SDS011;22056;0.000;0.000;2023-04-15T04:49:40;0.30;;;0.30;;
35977;SDS011;22056;0.000;0.000;2023-04-15T04:52:06;0.20;;;0.20;;
35977;SDS011;22056;0.000;0.000;2023-04-15T04:54:32;1.00;;;0.30;;
35977;SDS011;22056;0.000;0.000;2023-04-15T04:56:58;0.30;;;0.28;;
35977;SDS011;22056;0.000;0.000;2023-04-15T04:59:25;1.02;;;0.40;;
35977;SDS011;22056;0.000;0.000;2023-04-15T05:01:52;0.38;;;0.30;;
35977;SDS011;22056;0.000;0.000;2023-04-15T05:04:18;0.98;;;0.30;;
35977;SDS011;22056;0.000;0.000;2023-04-15T05:06:44;0.60;;;0.30;;
35977;SDS011;22056;0.000;0.000;2023-04-15T05:09:10;0.38;;;0.30;;
35977;SDS011;22056;0.000;0.000;2023-04-15T05:11:36;0.30;;;0.20;;
35977;SDS011;22056;0.000;0.000;2023-04-15T05:14:02;0.20;;;0.20;;
35977;SDS011;22056;0.000;0.000;2023-04-15T05:16:29;0.22;;;0.22;;
35977;SDS011;22056;0.000;0.000;2023-04-15T05:18:55;1.13;;;0.25;;
35977;SDS011;22056;0.000;0.000;2023-04-15T05:21:21;0.30;;;0.30;;
35977;SDS011;22056;0.000;0.000;2023-04-15T05:23:47;0.20;;;0.20;;
35977;SDS011;22056;0.000;0.000;2023-04-15T05:26:13;0.35;;;0.32;;
35977;SDS011;22056;0.000;0.000;2023-04-15T05:28:39;0.30;;;0.30;;
35977;SDS011;22056;0.000;0.000;2023-04-15T05:31:05;0.30;;;0.30;;
35977;SDS011;22056;0.000;0.000;2023-04-15T05:33:31;0.57;;;0.20;;
35977;SDS011;22056;0.000;0.000;2023-04-15T05:35:58;0.10;;;0.10;;
35977;SDS011;22056;0.000;0.000;2023-04-15T05:38:24;0.20;;;0.20;;
35977;SDS011;22056;0.000;0.000;2023-04-15T05:40:50;0.30;;;0.20;;
35977;SDS011;22056;0.000;0.000;2023-04-15T05:43:16;0.45;;;0.30;;
35977;SDS011;22056;0.000;0.000;2023-04-15T05:45:42;0.35;;;0.30;;
35977;SDS011;22056;0.000;0.000;2023-04-15T05:48:08;0.93;;;0.30;;
35977;SDS011;22056;0.000;0.000;2023-04-15T05:50:34;0.40;;;0.30;;
35977;SDS011;22056;0.000;0.000;2023-04-15T05:53:00;0.38;;;0.25;;
35977;SDS011;22056;0.000;0.000;2023-04-15T05:55:27;0.30;;;0.20;;
35977;SDS011;22056;0.000;0.000;2023-04-15T05:57:53;0.93;;;0.50;;
35977;SDS011;22056;0.000;0.000;2023-04-15T06:00:19;0.30;;;0.20;;
35977;SDS011;22056;0.000;0.000;2023-04-15T06:02:45;0.20;;;0.20;;
35977;SDS011;22056;0.000;0.000;2023-04-15T06:05:11;0.30;;;0.20;;
35977;SDS011;22056;0.000;0.000;2023-04-15T06:07:38;0.47;;;0.20;;
35977;SDS011;22056;0.000;0.000;2023-04-15T06:10:05;0.13;;;0.10;;
35977;SDS011;22056;0.000;0.000;2023-04-15T06:12:31;0.30;;;0.30;;
35977;SDS011;22056;0.000;0.000;2023-04-15T06:14:58;0.20;;;0.20;;
35977;SDS011;22056;0.000;0.000;2023-04-15T06:17:24;0.32;;;0.30;;
35977;SDS011;22056;0.000;0.000;2023-04-15T06:19:50;0.30;;;0.30;;
35977;SDS011;22056;0.000;0.000;2023-04-15T06:22:22;0.45;;;0.20;;
35977;SDS011;22056;0.000;0.000;2023-04-15T06:24:48;0.30;;;0.20;;
35977;SDS011;22056;0.000;0.000;2023-04-15T06:27:15;0.38;;;0.22;;
35977;SDS011;22056;0.000;0.000;2023-04-15T06:29:41;0.30;;;0.22;;
35977;SDS011;22056;0.000;0.000;2023-04-15T06:32:08;0.43;;;0.30;;
35977;SDS011;22056;0.000;0.000;2023-04-15T06:34:34;0.30;;;0.20;;
35977;SDS011;22056;0.000;0.000;2023-04-15T06:37:00;0.45;;;0.30;;
35977;SDS011;22056;0.000;0.000;2023-04-15T06:39:26;0.40;;;0.20;;
35977;SDS011;22056;0.000;0.000;2023-04-15T06:41:52;0.17;;;0.13;;
35977;SDS011;22056;0.000;0.000;2023-04-15T06:44:19;0.28;;;0.20;;
35977;SDS011;22056;0.000;0.000;2023-04-15T06:46:45;0.22;;;0.22;;
35977;SDS011;22056;0.000;0.000;2023-04-15T06:49:11;0.93;;;0.40;;
35977;SDS011;22056;0.000;0.000;2023-04-15T06:51:37;0.40;;;0.30;;
35977;SDS011;22056;0.000;0.000;2023-04-15T06:54:03;0.30;;;0.30;;
35977;SDS011;22056;0.000;0.000;2023-04-15T06:56:33;0.40;;;0.30;;
35977;SDS011;22056;0.000;0.000;2023-04-15T06:58:59;0.13;;;0.13;;
35977;SDS011;22056;0.000;0.000;2023-04-15T07:01:26;0.20;;;0.20;;
35977;SDS011;22056;0.000;0.000;2023-04-15T07:03:52;0.20;;;0.20;;
35977;SDS011;22056;0.000;0.000;2023-04-15T07:06:18;0.20;;;0.20;;
35977;SDS011;22056;0.000;0.000;2023-04-15T07:08:46;0.20;;;0.20;;
35977;SDS011;22056;0.000;0.000;2023-04-15T07:11:12;0.20;;;0.20;;
35977;SDS011;22056;0.000;0.000;2023-04-15T07:13:39;0.30;;;0.20;;
35977;SDS011;22056;0.000;0.000;2023-04-15T07:16:05;0.20;;;0.20;;
35977;SDS011;22056;0.000;0.000;2023-04-15T07:18:31;0.55;;;0.28;;
35977;SDS011;22056;0.000;0.000;2023-04-15T07:20:57;0.30;;;0.20;;
35977;SDS011;22056;0.000;0.000;2023-04-15T07:23:23;0.30;;;0.30;;
35977;SDS011;22056;0.000;0.000;2023-04-15T07:25:49;0.32;;;0.30;;
35977;SDS011;22056;0.000;0.000;2023-04-15T07:28:16;0.20;;;0.20;;
35977;SDS011;22056;0.000;0.000;2023-04-15T07:30:42;0.93;;;0.30;;
35977;SDS011;22056;0.000;0.000;2023-04-15T07:33:08;0.65;;;0.30;;
35977;SDS011;22056;0.000;0.000;2023-04-15T07:35:34;0.50;;;0.20;;
35977;SDS011;22056;0.000;0.000;2023-04-15T07:38:01;0.38;;;0.30;;
35977;SDS011;22056;0.000;0.000;2023-04-15T07:40:27;0.43;;;0.20;;
35977;SDS011;22056;0.000;0.000;2023-04-15T07:42:54;1.00;;;0.20;;
35977;SDS011;22056;0.000;0.000;2023-04-15T07:45:22;0.20;;;0.20;;
35977;SDS011;22056;0.000;0.000;2023-04-15T07:47:48;0.25;;;0.20;;
35977;SDS011;22056;0.000;0.000;2023-04-15T07:50:15;0.60;;;0.30;;
35977;SDS011;22056;0.000;0.000;2023-04-15T07:52:42;0.32;;;0.20;;
35977;SDS011;22056;0.000;0.000;2023-04-15T07:55:09;0.20;;;0.20;;
35977;SDS011;22056;0.000;0.000;2023-04-15T07:57:35;0.45;;;0.13;;
35977;SDS011;22056;0.000;0.000;2023-04-15T08:00:02;0.30;;;0.20;;
35977;SDS011;22056;0.000;0.000;2023-04-15T08:02:31;0.25;;;0.20;;
35977;SDS011;22056;0.000;0.000;2023-04-15T08:04:57;0.20;;;0.20;;
35977;SDS011;22056;0.000;0.000;2023-04-15T08:07:24;0.20;;;0.20;;
35977;SDS011;22056;0.000;0.000;2023-04-15T08:09:50;0.35;;;0.20;;
35977;SDS011;22056;0.000;0.000;2023-04-15T08:12:16;0.30;;;0.20;;
35977;SDS011;22056;0.000;0.000;2023-04-15T08:14:42;0.30;;;0.30;;
35977;SDS011;22056;0.000;0.000;2023-04-15T08:17:08;0.20;;;0.20;;
35977;SDS011;22056;0.000;0.000;2023-04-15T08:19:34;0.30;;;0.22;;
35977;SDS011;22056;0.000;0.000;2023-04-15T08:22:01;0.40;;;0.20;;
35977;SDS011;22056;0.000;0.000;2023-04-15T08:24:27;0.20;;;0.20;;
35977;SDS011;22056;0.000;0.000;2023-04-15T08:26:53;0.30;;;0.20;;
35977;SDS011;22056;0.000;0.000;2023-04-15T08:29:20;0.30;;;0.20;;
35977;SDS011;22056;0.000;0.000;2023-04-15T08:31:46;0.40;;;0.10;;
35977;SDS011;22056;0.000;0.000;2023-04-15T08:34:13;0.17;;;0.17;;
35977;SDS011;22056;0.000;0.000;2023-04-15T08:36:39;0.20;;;0.20;;
35977;SDS011;22056;0.000;0.000;2023-04-15T08:39:05;0.10;;;0.10;;
35977;SDS011;22056;0.000;0.000;2023-04-15T08:42:06;0.30;;;0.20;;
35977;SDS011;22056;0.000;0.000;2023-04-15T08:44:24;0.20;;;0.20;;
35977;SDS011;22056;0.000;0.000;2023-04-15T08:46:51;0.20;;;0.10;;
35977;SDS011;22056;0.000;0.000;2023-04-15T08:49:18;0.20;;;0.20;;
35977;SDS011;22056;0.000;0.000;2023-04-15T08:51:44;0.28;;;0.20;;
35977;SDS011;22056;0.000;0.000;2023-04-15T08:54:11;0.20;;;0.20;;
35977;SDS011;22056;0.000;0.000;2023-04-15T08:56:37;0.20;;;0.20;;
35977;SDS011;22056;0.000;0.000;2023-04-15T08:59:04;0.20;;;0.20;;
35977;SDS011;22056;0.000;0.000;2023-04-15T09:01:31;0.22;;;0.20;;
35977;SDS011;22056;0.000;0.000;2023-04-15T09:03:58;0.20;;;0.20;;
35977;SDS011;22056;0.000;0.000;2023-04-15T09:06:24;0.15;;;0.15;;
35977;SDS011;22056;0.000;0.000;2023-04-15T09:08:51;0.30;;;0.30;;
35977;SDS011;22056;0.000;0.000;2023-04-15T09:11:17;0.20;;;0.20;;
35977;SDS011;22056;0.000;0.000;2023-04-15T09:13:44;0.30;;;0.20;;
35977;SDS011;22056;0.000;0.000;2023-04-15T09:16:10;0.20;;;0.20;;
35977;SDS011;22056;0.000;0.000;2023-04-15T09:18:37;0.20;;;0.20;;
35977;SDS011;22056;0.000;0.000;2023-04-15T09:21:07;0.20;;;0.20;;
35977;SDS011;22056;0.000;0.000;2023-04-15T09:23:39;0.20;;;0.20;;
35977;SDS011;22056;0.000;0.000;2023-04-15T09:26:06;0.20;;;0.20;;
35977;SDS011;22056;0.000;0.000;2023-04-15T09:28:32;0.32;;;0.20;;
35977;SDS011;22056;0.000;0.000;2023-04-15T09:31:00;0.20;;;0.20;;
35977;SDS011;22056;0.000;0.000;2023-04-15T09:33:27;0.10;;;0.10;;
35977;SDS011;22056;0.000;0.000;2023-04-15T09:38:26;0.30;;;0.20;;
35977;SDS011;22056;0.000;0.000;2023-04-15T09:40:52;0.98;;;0.30;;
35977;SDS011;22056;0.000;0.000;2023-04-15T09:43:18;0.20;;;0.20;;
35977;SDS011;22056;0.000;0.000;2023-04-15T09:45:48;0.10;;;0.10;;
35977;SDS011;22056;0.000;0.000;2023-04-15T09:48:15;0.20;;;0.20;;
35977;SDS011;22056;0.000;0.000;2023-04-15T09:50:42;0.20;;;0.20;;
35977;SDS011;22056;0.000;0.000;2023-04-15T09:53:09;0.10;;;0.10;;
35977;SDS011;22056;0.000;0.000;2023-04-15T09:55:38;0.20;;;0.20;;
35977;SDS011;22056;0.000;0.000;2023-04-15T09:58:07;0.10;;;0.10;;
35977;SDS011;22056;0.000;0.000;2023-04-15T10:00:34;0.10;;;0.10;;
35977;SDS011;22056;0.000;0.000;2023-04-15T10:03:00;0.20;;;0.20;;
35977;SDS011;22056;0.000;0.000;2023-04-15T10:05:27;0.13;;;0.13;;
35977;SDS011;22056;0.000;0.000;2023-04-15T10:07:54;0.10;;;0.10;;
35977;SDS011;22056;0.000;0.000;2023-04-15T10:10:20;0.30;;;0.20;;
35977;SDS011;22056;0.000;0.000;2023-04-15T10:12:46;0.43;;;0.20;;
35977;SDS011;22056;0.000;0.000;2023-04-15T10:15:14;0.10;;;0.10;;
35977;SDS011;22056;0.000;0.000;2023-04-15T10:17:44;0.17;;;0.17;;
35977;SDS011;22056;0.000;0.000;2023-04-15T10:20:11;0.10;;;0.10;;
35977;SDS011;22056;0.000;0.000;2023-04-15T10:22:39;0.10;;;0.10;;
35977;SDS011;22056;0.000;0.000;2023-04-15T10:25:05;0.20;;;0.20;;
35977;SDS011;22056;0.000;0.000;2023-04-15T10:27:32;0.20;;;0.20;;
35977;SDS011;22056;0.000;0.000;2023-04-15T10:29:59;0.20;;;0.20;;
35977;SDS011;22056;0.000;0.000;2023-04-15T10:32:27;0.20;;;0.20;;
35977;SDS011;22056;0.000;0.000;2023-04-15T10:34:54;0.15;;;0.10;;
35977;SDS011;22056;0.000;0.000;2023-04-15T10:37:24;0.20;;;0.20;;
35977;SDS011;22056;0.000;0.000;2023-04-15T10:39:58;0.20;;;0.20;;
35977;SDS011;22056;0.000;0.000;2023-04-15T10:42:24;0.45;;;0.20;;
35977;SDS011;22056;0.000;0.000;2023-04-15T10:44:58;0.10;;;0.10;;
35977;SDS011;22056;0.000;0.000;2023-04-15T10:47:25;0.10;;;0.10;;
35977;SDS011;22056;0.000;0.000;2023-04-15T10:49:51;0.20;;;0.20;;
35977;SDS011;22056;0.000;0.000;2023-04-15T10:52:22;0.20;;;0.20;;
35977;SDS011;22056;0.000;0.000;2023-04-15T10:54:49;0.20;;;0.20;;
35977;SDS011;22056;0.000;0.000;2023-04-15T10:57:27;0.17;;;0.17;;
35977;SDS011;22056;0.000;0.000;2023-04-15T11:05:04;0.13;;;0.13;;
35977;SDS011;22056;0.000;0.000;2023-04-15T11:12:45;0.22;;;0.13;;
35977;SDS011;22056;0.000;0.000;2023-04-15T11:17:56;0.30;;;0.30;;
35977;SDS011;22056;0.000;0.000;2023-04-15T11:20:22;0.13;;;0.10;;
35977;SDS011;22056;0.000;0.000;2023-04-15T11:22:49;0.20;;;0.10;;
35977;SDS011;22056;0.000;0.000;2023-04-15T11:25:28;0.10;;;0.10;;
35977;SDS011;22056;0.000;0.000;2023-04-15T11:27:55;0.10;;;0.10;;
35977;SDS011;22056;0.000;0.000;2023-04-15T11:30:25;0.10;;;0.10;;
35977;SDS011;22056;0.000;0.000;2023-04-15T11:32:52;0.22;;;0.10;;
35977;SDS011;22056;0.000;0.000;2023-04-15T11:35:18;0.10;;;0.10;;
35977;SDS011;22056;0.000;0.000;2023-04-15T11:37:45;0.10;;;0.10;;
35977;SDS011;22056;0.000;0.000;2023-04-15T11:40:12;0.20;;;0.20;;
35977;SDS011;22056;0.000;0.000;2023-04-15T11:42:39;0.10;;;0.10;;
35977;SDS011;22056;0.000;0.000;2023-04-15T11:45:06;0.10;;;0.10;;
35977;SDS011;22056;0.000;0.000;2023-04-15T11:47:34;0.20;;;0.20;;
35977;SDS011;22056;0.000;0.000;2023-04-15T11:50:16;0.10;;;0.10;;
35977;SDS011;22056;0.000;0.000;2023-04-15T11:55:09;0.10;;;0.10;;
35977;SDS011;22056;0.000;0.000;2023-04-15T11:57:35;0.20;;;0.20;;
35977;SDS011;22056;0.000;0.000;2023-04-15T12:00:01;0.20;;;0.20;;
35977;SDS011;22056;0.000;0.000;2023-04-15T12:02:35;0.20;;;0.20;;
35977;SDS011;22056;0.000;0.000;2023-04-15T12:05:02;0.10;;;0.10;;
35977;SDS011;22056;0.000;0.000;2023-04-15T12:07:28;0.25;;;0.25;;
35977;SDS011;22056;0.000;0.000;2023-04-15T12:09:54;0.20;;;0.13;;
35977;SDS011;22056;0.000;0.000;2023-04-15T12:12:20;0.25;;;0.20;;
35977;SDS011;22056;0.000;0.000;2023-04-15T12:14:50;0.20;;;0.20;;
35977;SDS011;22056;0.000;0.000;2023-04-15T12:17:16;0.10;;;0.10;;
35977;SDS011;22056;0.000;0.000;2023-04-15T12:19:43;0.20;;;0.20;;
35977;SDS011;22056;0.000;0.000;2023-04-15T12:22:14;0.10;;;0.10;;
35977;SDS011;22056;0.000;0.000;2023-04-15T12:24:41;0.10;;;0.10;;
35977;SDS011;22056;0.000;0.000;2023-04-15T12:27:12;0.47;;;0.20;;
35977;SDS011;22056;0.000;0.000;2023-04-15T12:29:39;0.20;;;0.20;;
35977;SDS011;22056;0.000;0.000;2023-04-15T12:32:15;0.10;;;0.10;;
35977;SDS011;22056;0.000;0.000;2023-04-15T12:34:47;0.17;;;0.17;;
35977;SDS011;22056;0.000;0.000;2023-04-15T12:37:14;0.10;;;0.10;;
35977;SDS011;22056;0.000;0.000;2023-04-15T12:39:42;0.10;;;0.10;;
35977;SDS011;22056;0.000;0.000;2023-04-15T12:42:09;0.10;;;0.10;;
35977;SDS011;22056;0.000;0.000;2023-04-15T12:44:35;0.10;;;0.10;;
35977;SDS011;22056;0.000;0.000;2023-04-15T12:47:02;0.20;;;0.10;;
35977;SDS011;22056;0.000;0.000;2023-04-15T12:49:28;0.10;;;0.10;;
35977;SDS011;22056;0.000;0.000;2023-04-15T12:51:55;0.10;;;0.10;;
35977;SDS011;22056;0.000;0.000;2023-04-15T12:54:22;0.10;;;0.10;;
35977;SDS011;22056;0.000;0.000;2023-04-15T12:56:48;0.35;;;0.20;;
35977;SDS011;22056;0.000;0.000;2023-04-15T12:59:15;0.30;;;0.20;;
35977;SDS011;22056;0.000;0.000;2023-04-15T13:01:46;0.10;;;0.10;;
35977;SDS011;22056;0.000;0.000;2023-04-15T13:04:12;0.13;;;0.13;;
35977;SDS011;22056;0.000;0.000;2023-04-15T13:06:38;0.13;;;0.13;;
35977;SDS011;22056;0.000;0.000;2023-04-15T13:09:05;0.20;;;0.20;;
35977;SDS011;22056;0.000;0.000;2023-04-15T13:11:31;0.20;;;0.20;;
35977;SDS011;22056;0.000;0.000;2023-04-15T13:14:04;0.10;;;0.10;;
35977;SDS011;22056;0.000;0.000;2023-04-15T13:16:31;0.17;;;0.17;;
35977;SDS011;22056;0.000;0.000;2023-04-15T13:18:57;0.20;;;0.20;;
35977;SDS011;22056;0.000;0.000;2023-04-15T13:21:24;0.10;;;0.10;;
35977;SDS011;22056;0.000;0.000;2023-04-15T13:23:51;0.10;;;0.10;;
35977;SDS011;22056;0.000;0.000;2023-04-15T13:26:17;0.10;;;0.10;;
35977;SDS011;22056;0.000;0.000;2023-04-15T13:28:43;0.10;;;0.10;;
35977;SDS011;22056;0.000;0.000;2023-04-15T13:31:10;0.30;;;0.30;;
35977;SDS011;22056;0.000;0.000;2023-04-15T13:33:36;0.10;;;0.10;;
35977;SDS011;22056;0.000;0.000;2023-04-15T13:36:02;0.10;;;0.10;;
35977;SDS011;22056;0.000;0.000;2023-04-15T13:38:28;0.10;;;0.10;;
35977;SDS011;22056;0.000;0.000;2023-04-15T13:40:55;0.20;;;0.20;;
35977;SDS011;22056;0.000;0.000;2023-04-15T13:43:21;0.10;;;0.10;;
35977;SDS011;22056;0.000;0.000;2023-04-15T13:45:47;0.10;;;0.10;;
35977;SDS011;22056;0.000;0.000;2023-04-15T13:48:13;0.10;;;0.10;;
35977;SDS011;22056;0.000;0.000;2023-04-15T13:50:39;0.30;;;0.10;;
35977;SDS011;22056;0.000;0.000;2023-04-15T13:53:09;0.10;;;0.10;;
35977;SDS011;22056;0.000;0.000;2023-04-15T13:55:35;0.13;;;0.13;;
35977;SDS011;22056;0.000;0.000;2023-04-15T13:58:05;0.10;;;0.10;;
35977;SDS011;22056;0.000;0.000;2023-04-15T14:00:31;0.10;;;0.10;;
35977;SDS011;22056;0.000;0.000;2023-04-15T14:02:57;0.30;;;0.13;;
35977;SDS011;22056;0.000;0.000;2023-04-15T14:05:23;0.10;;;0.10;;
35977;SDS011;22056;0.000;0.000;2023-04-15T14:07:50;0.20;;;0.20;;
35977;SDS011;22056;0.000;0.000;2023-04-15T14:10:16;0.20;;;0.20;;
35977;SDS011;22056;0.000;0.000;2023-04-15T14:12:42;0.10;;;0.10;;
35977;SDS011;22056;0.000;0.000;2023-04-15T14:15:08;0.20;;;0.20;;
35977;SDS011;22056;0.000;0.000;2023-04-15T14:17:35;0.10;;;0.10;;
35977;SDS011;22056;0.000;0.000;2023-04-15T14:20:01;0.10;;;0.10;;
35977;SDS011;22056;0.000;0.000;2023-04-15T14:22:27;0.10;;;0.10;;
35977;SDS011;22056;0.000;0.000;2023-04-15T14:24:53;0.10;;;0.10;;
35977;SDS011;22056;0.000;0.000;2023-04-15T14:27:19;0.20;;;0.20;;
35977;SDS011;22056;0.000;0.000;2023-04-15T14:29:46;0.10;;;0.10;;
35977;SDS011;22056;0.000;0.000;2023-04-15T14:32:12;0.10;;;0.10;;
35977;SDS011;22056;0.000;0.000;2023-04-15T14:34:38;0.10;;;0.10;;
35977;SDS011;22056;0.000;0.000;2023-04-15T14:37:04;0.10;;;0.10;;
35977;SDS011;22056;0.000;0.000;2023-04-15T14:39:31;0.10;;;0.10;;
35977;SDS011;22056;0.000;0.000;2023-04-15T14:41:57;0.20;;;0.20;;
35977;SDS011;22056;0.000;0.000;2023-04-15T14:44:23;0.38;;;0.20;;
35977;SDS011;22056;0.000;0.000;2023-04-15T14:46:50;0.15;;;0.15;;
35977;SDS011;22056;0.000;0.000;2023-04-15T14:49:16;0.10;;;0.10;;
35977;SDS011;22056;0.000;0.000;2023-04-15T14:51:42;0.10;;;0.10;;
35977;SDS011;22056;0.000;0.000;2023-04-15T14:54:08;0.20;;;0.20;;
35977;SDS011;22056;0.000;0.000;2023-04-15T14:56:34;0.20;;;0.20;;
35977;SDS011;22056;0.000;0.000;2023-04-15T14:59:01;0.28;;;0.20;;
35977;SDS011;22056;0.000;0.000;2023-04-15T15:01:27;0.10;;;0.10;;
35977;SDS011;22056;0.000;0.000;2023-04-15T15:03:54;0.20;;;0.20;;
35977;SDS011;22056;0.000;0.000;2023-04-15T15:06:20;0.20;;;0.20;;
35977;SDS011;22056;0.000;0.000;2023-04-15T15:08:47;0.13;;;0.13;;
35977;SDS011;22056;0.000;0.000;2023-04-15T15:11:14;0.10;;;0.10;;
35977;SDS011;22056;0.000;0.000;2023-04-15T15:13:41;0.17;;;0.17;;
35977;SDS011;22056;0.000;0.000;2023-04-15T15:16:07;0.13;;;0.13;;